Time;durP1;ratioP1;P1;durP2;ratioP2;P2;SDS_P1;SDS_P2;PMS_P1;PMS_P2;Temp;Humidity;BMP_temperature;BMP_pressure;BME280_temperature;BME280_humidity;BME280_pressure;Samples;Min_cycle;Max_cycle;Signal;HPM_P1;HPM_P2
2024/01/13 00:01:06;;;;;;;44.13;25.10;;;;;;;2.06;100.00;102867.16;5041771;28;20041;-64
2024/01/13 00:03:31;;;;;;;41.27;26.33;;;;;;;2.07;100.00;102868.00;5037455;28;20033;-64
2024/01/13 00:05:56;;;;;;;43.10;26.03;;;;;;;2.08;100.00;102861.84;5041522;28;20039;-64
2024/01/13 00:08:21;;;;;;;43.90;26.37;;;;;;;2.08;100.00;102857.47;5036649;28;20560;-64
2024/01/13 00:10:47;;;;;;;49.17;27.03;;;;;;;2.10;100.00;102853.00;5038696;28;20071;-64
2024/01/13 00:13:12;;;;;;;47.97;27.20;;;;;;;2.07;100.00;102845.28;5039470;28;20032;-64
2024/01/13 00:15:37;;;;;;;44.93;27.30;;;;;;;2.11;100.00;102859.09;5039094;28;20028;-64
2024/01/13 00:18:03;;;;;;;44.40;26.93;;;;;;;2.09;100.00;102853.91;5039561;28;20025;-64
2024/01/13 00:20:28;;;;;;;45.10;26.97;;;;;;;2.06;100.00;102854.06;5039927;28;20182;-64
2024/01/13 00:22:53;;;;;;;43.47;25.87;;;;;;;2.03;100.00;102856.81;5038863;28;20040;-64
2024/01/13 00:25:19;;;;;;;42.83;25.90;;;;;;;2.01;100.00;102849.91;5038605;28;20536;-64
2024/01/13 00:27:44;;;;;;;39.93;25.63;;;;;;;2.00;100.00;102850.81;5039449;28;20036;-64
2024/01/13 00:30:09;;;;;;;39.17;25.00;;;;;;;1.97;100.00;102849.19;5040868;28;20086;-64
2024/01/13 00:32:35;;;;;;;43.87;25.57;;;;;;;1.94;100.00;102843.22;5037847;28;20175;-64
2024/01/13 00:35:00;;;;;;;39.10;24.67;;;;;;;1.92;100.00;102843.28;5039906;28;20167;-64
2024/01/13 00:37:25;;;;;;;44.83;25.17;;;;;;;1.92;100.00;102843.28;5036764;28;20033;-64
2024/01/13 00:39:51;;;;;;;42.70;26.57;;;;;;;1.93;100.00;102839.75;5039188;28;20196;-64
2024/01/13 00:42:16;;;;;;;43.20;26.27;;;;;;;1.92;100.00;102837.22;5038667;28;20040;-64
2024/01/13 00:44:41;;;;;;;38.60;24.07;;;;;;;1.89;100.00;102832.09;5039339;28;20040;-64
2024/01/13 00:47:06;;;;;;;38.67;24.73;;;;;;;1.88;100.00;102833.00;5038375;28;20021;-64
2024/01/13 00:49:32;;;;;;;43.00;25.50;;;;;;;1.86;100.00;102828.69;5037102;28;20032;-64
2024/01/13 00:51:57;;;;;;;40.03;24.83;;;;;;;1.87;100.00;102829.53;5038199;28;20094;-64
2024/01/13 00:54:22;;;;;;;40.27;25.00;;;;;;;1.90;100.00;102823.31;5038248;28;20478;-64
2024/01/13 00:56:48;;;;;;;38.60;25.53;;;;;;;1.91;100.00;102814.53;5038801;28;20115;-64
2024/01/13 00:59:13;;;;;;;43.93;27.40;;;;;;;1.96;100.00;102810.81;5037823;28;20754;-64
2024/01/13 01:01:38;;;;;;;45.90;27.67;;;;;;;1.98;100.00;102808.97;5038178;28;20047;-64
2024/01/13 01:04:04;;;;;;;42.07;26.50;;;;;;;2.00;100.00;102807.13;5039137;28;20131;-64
2024/01/13 01:06:29;;;;;;;46.20;27.60;;;;;;;2.02;100.00;102812.31;5034437;28;20021;-64
2024/01/13 01:08:54;;;;;;;43.90;28.20;;;;;;;2.02;100.00;102800.03;5039008;28;20067;-64
2024/01/13 01:11:20;;;;;;;49.00;29.00;;;;;;;2.04;100.00;102800.88;5037826;28;20514;-65
2024/01/13 01:13:45;;;;;;;48.97;29.90;;;;;;;2.06;100.00;102793.78;5040012;28;20033;-64
2024/01/13 01:16:11;;;;;;;44.10;28.70;;;;;;;2.07;100.00;102792.84;5037281;28;20414;-64
2024/01/13 01:18:36;;;;;;;43.30;29.20;;;;;;;2.07;100.00;102785.00;5038318;28;20020;-64
2024/01/13 01:21:01;;;;;;;49.00;28.80;;;;;;;2.08;100.00;102785.84;5038227;28;20029;-64
2024/01/13 01:23:27;;;;;;;48.50;29.10;;;;;;;2.09;100.00;102791.03;5037800;28;20039;-64
2024/01/13 01:25:52;;;;;;;47.67;29.20;;;;;;;2.05;100.00;102773.75;5037098;28;20108;-64
2024/01/13 01:28:17;;;;;;;48.23;29.97;;;;;;;2.06;100.00;102772.81;5039305;28;20059;-64
2024/01/13 01:30:43;;;;;;;46.93;29.90;;;;;;;2.08;100.00;102778.84;5035160;28;20032;-64
2024/01/13 01:33:08;;;;;;;49.23;30.33;;;;;;;2.09;100.00;102777.91;5038779;28;20082;-64
2024/01/13 01:35:33;;;;;;;49.67;30.50;;;;;;;2.10;100.00;102779.63;5036913;28;20021;-64
2024/01/13 01:37:58;;;;;;;48.23;30.07;;;;;;;2.09;100.00;102777.91;5038508;28;20029;-64
2024/01/13 01:40:26;;;;;;;42.80;28.03;;;;;;;2.09;100.00;102780.53;5036058;28;20059;-64
2024/01/13 01:42:52;;;;;;;46.20;28.53;;;;;;;2.09;100.00;102780.53;5038532;28;20035;-65
2024/01/13 01:45:17;;;;;;;46.10;27.77;;;;;;;2.07;100.00;102779.75;5039536;28;20017;-64
2024/01/13 01:47:44;;;;;;;41.60;27.70;;;;;;;2.02;100.00;102773.84;5038647;28;20037;-64
2024/01/13 01:50:10;;;;;;;46.73;27.67;;;;;;;2.02;100.00;102765.13;5036431;28;20033;-64
2024/01/13 01:52:37;;;;;;;47.27;28.90;;;;;;;2.01;100.00;102769.53;5037185;28;20028;-64
2024/01/13 01:55:03;;;;;;;47.90;27.53;;;;;;;2.03;100.00;102770.34;5035718;28;20573;-64
2024/01/13 01:57:30;;;;;;;44.33;27.73;;;;;;;2.03;100.00;102772.97;5036665;28;20128;-65
2024/01/13 01:59:55;;;;;;;44.20;26.97;;;;;;;2.03;100.00;102769.47;5035061;28;20036;-64
2024/01/13 02:02:21;;;;;;;44.60;27.30;;;;;;;2.03;100.00;102761.63;5034895;28;20028;-65
2024/01/13 02:04:47;;;;;;;47.03;27.63;;;;;;;2.04;100.00;102764.19;5037398;28;20029;-64
2024/01/13 02:07:13;;;;;;;46.47;28.40;;;;;;;2.04;100.00;102760.69;5038115;28;20024;-64
2024/01/13 02:09:39;;;;;;;46.30;28.90;;;;;;;2.03;100.00;102749.38;5037322;28;20052;-64
2024/01/13 02:12:05;;;;;;;44.53;27.97;;;;;;;2.05;100.00;102750.16;5039873;28;20596;-64
2024/01/13 02:14:30;;;;;;;45.33;27.77;;;;;;;2.05;100.00;102754.53;5034377;28;20310;-64
2024/01/13 02:16:57;;;;;;;41.90;27.77;;;;;;;2.06;100.00;102759.72;5037158;28;20524;-64
2024/01/13 02:19:22;;;;;;;45.00;28.73;;;;;;;2.05;100.00;102747.53;5035554;28;20031;-64
2024/01/13 02:21:47;;;;;;;47.43;29.27;;;;;;;2.06;100.00;102748.38;5037574;28;20025;-64
2024/01/13 02:24:13;;;;;;;45.00;28.87;;;;;;;2.06;100.00;102737.91;5036671;28;20112;-64
2024/01/13 02:26:38;;;;;;;45.90;28.20;;;;;;;2.06;100.00;102735.28;5036357;28;20029;-65
2024/01/13 02:29:04;;;;;;;46.83;29.43;;;;;;;2.07;100.00;102731.75;5034505;28;20371;-64
2024/01/13 02:31:29;;;;;;;47.80;30.10;;;;;;;2.05;100.00;102726.56;5038170;28;20028;-64
2024/01/13 02:33:54;;;;;;;47.33;30.70;;;;;;;2.07;100.00;102724.72;5034242;28;20024;-64
2024/01/13 02:36:20;;;;;;;48.03;29.97;;;;;;;2.07;100.00;102718.63;5037166;28;20091;-64
2024/01/13 02:38:45;;;;;;;43.87;28.50;;;;;;;2.05;100.00;102708.22;5036507;28;20029;-64
2024/01/13 02:41:10;;;;;;;46.63;30.83;;;;;;;2.05;100.00;102708.22;5036650;28;20038;-64
2024/01/13 02:43:36;;;;;;;47.37;29.53;;;;;;;2.06;100.00;102694.22;5034949;28;20055;-64
2024/01/13 02:46:03;;;;;;;48.30;30.07;;;;;;;2.06;100.00;102691.59;5035105;28;20054;-64
2024/01/13 02:48:33;;;;;;;49.93;30.53;;;;;;;2.05;100.00;102687.25;5036357;28;20021;-64
2024/01/13 02:51:01;;;;;;;49.97;30.13;;;;;;;2.06;100.00;102680.25;5037412;28;20033;-64
2024/01/13 02:53:27;;;;;;;47.47;30.03;;;;;;;2.05;100.00;102686.41;5036640;28;20510;-64
2024/01/13 02:55:52;;;;;;;46.03;29.27;;;;;;;2.02;100.00;102673.41;5037370;28;20021;-64
2024/01/13 02:58:17;;;;;;;44.63;29.47;;;;;;;2.00;100.00;102681.34;5034313;28;20025;-64
2024/01/13 03:00:43;;;;;;;44.47;29.27;;;;;;;2.01;100.00;102675.19;5037946;28;20078;-65
2024/01/13 03:03:08;;;;;;;45.60;29.60;;;;;;;2.01;100.00;102669.97;5033193;28;20029;-64
2024/01/13 03:05:33;;;;;;;49.40;30.83;;;;;;;2.00;100.00;102663.00;5036833;28;20056;-64
2024/01/13 03:07:59;;;;;;;46.53;30.00;;;;;;;2.02;100.00;102666.41;5035663;28;20497;-66
2024/01/13 03:10:25;;;;;;;42.60;28.83;;;;;;;1.99;100.00;102661.31;5038724;28;20029;-64
2024/01/13 03:12:50;;;;;;;45.80;29.60;;;;;;;2.01;100.00;102653.38;5038119;28;20023;-64
2024/01/13 03:15:15;;;;;;;43.93;28.03;;;;;;;2.00;100.00;102638.59;5035516;28;20029;-64
2024/01/13 03:17:41;;;;;;;45.33;27.87;;;;;;;1.99;100.00;102644.75;5032436;28;20103;-64
2024/01/13 03:20:07;;;;;;;38.23;26.83;;;;;;;1.98;100.00;102641.28;5036851;28;20143;-64
2024/01/13 03:22:32;;;;;;;41.17;27.07;;;;;;;1.97;100.00;102642.19;5037293;28;20113;-64
2024/01/13 03:24:57;;;;;;;41.10;27.60;;;;;;;2.00;100.00;102646.44;5037309;28;20075;-64
2024/01/13 03:27:23;;;;;;;35.83;24.93;;;;;;;2.00;100.00;102636.81;5038909;28;20074;-64
2024/01/13 03:29:48;;;;;;;36.10;25.07;;;;;;;2.02;100.00;102626.25;5035152;28;20391;-64
2024/01/13 03:32:13;;;;;;;34.47;24.50;;;;;;;2.03;100.00;102626.22;5039866;28;20025;-64
2024/01/13 03:34:38;;;;;;;31.37;23.10;;;;;;;2.02;100.00;102624.50;5035613;28;20028;-64
2024/01/13 03:37:04;;;;;;;28.57;21.00;;;;;;;2.05;100.00;102631.38;5039087;28;20033;-64
2024/01/13 03:39:29;;;;;;;33.13;22.13;;;;;;;2.03;100.00;102618.34;5040097;28;20533;-64
2024/01/13 03:41:55;;;;;;;28.47;20.77;;;;;;;2.05;100.00;102619.13;5039027;28;20064;-64
2024/01/13 03:44:21;;;;;;;29.73;20.93;;;;;;;2.05;100.00;102618.28;5036599;28;20057;-65
2024/01/13 03:46:46;;;;;;;27.37;20.90;;;;;;;2.05;100.00;102619.13;5035139;28;20020;-65
2024/01/13 03:49:11;;;;;;;27.70;20.13;;;;;;;2.06;100.00;102609.50;5039858;28;20060;-64
2024/01/13 03:51:36;;;;;;;29.30;19.43;;;;;;;2.05;100.00;102606.03;5036027;28;20091;-64
2024/01/13 03:54:02;;;;;;;27.10;18.93;;;;;;;2.06;100.00;102597.25;5038164;28;20035;-64
2024/01/13 03:56:27;;;;;;;25.07;18.60;;;;;;;2.07;100.00;102603.34;5040956;28;20025;-64
2024/01/13 03:58:53;;;;;;;24.33;17.53;;;;;;;2.08;100.00;102598.03;5037783;28;20502;-64
2024/01/13 04:01:18;;;;;;;24.03;17.77;;;;;;;2.07;100.00;102593.69;5037005;28;20063;-64
2024/01/13 04:03:43;;;;;;;24.10;17.53;;;;;;;2.09;100.00;102591.84;5038475;28;20102;-64
2024/01/13 04:06:09;;;;;;;23.13;16.70;;;;;;;2.10;100.00;102596.19;5036204;28;20099;-64
2024/01/13 04:08:34;;;;;;;21.67;16.30;;;;;;;2.12;100.00;102591.72;5037356;28;20025;-64
2024/01/13 04:11:00;;;;;;;19.60;14.90;;;;;;;2.03;100.00;102575.59;5037828;28;20057;-64
2024/01/13 04:13:25;;;;;;;18.93;14.53;;;;;;;2.12;100.00;102583.84;5037338;28;20746;-64
2024/01/13 04:15:50;;;;;;;19.23;13.53;;;;;;;2.14;100.00;102579.38;5038078;28;20029;-64
2024/01/13 04:18:15;;;;;;;15.87;12.00;;;;;;;2.14;100.00;102576.75;5040305;28;20040;-64
2024/01/13 04:20:41;;;;;;;19.37;12.80;;;;;;;2.17;100.00;102584.47;5040694;28;20063;-64
2024/01/13 04:23:06;;;;;;;16.60;11.77;;;;;;;2.18;100.00;102580.06;5033856;28;20056;-64
2024/01/13 04:25:32;;;;;;;17.83;12.17;;;;;;;2.21;100.00;102571.22;5038109;28;20104;-64
2024/01/13 04:28:00;;;;;;;15.80;11.77;;;;;;;2.23;100.00;102572.84;5038003;28;20119;-64
2024/01/13 04:30:26;;;;;;;15.63;11.07;;;;;;;2.24;100.00;102568.44;5037399;28;20041;-64
2024/01/13 04:32:51;;;;;;;15.87;10.83;;;;;;;2.22;100.00;102563.28;5036085;28;20040;-64
2024/01/13 04:35:16;;;;;;;13.67;10.50;;;;;;;2.21;100.00;102569.44;5034778;28;20036;-65
2024/01/13 04:37:42;;;;;;;12.83;10.13;;;;;;;2.22;100.00;102567.66;5039814;28;20482;-64
2024/01/13 04:40:08;;;;;;;15.63;10.53;;;;;;;2.20;100.00;102569.53;5037870;28;20025;-64
2024/01/13 04:42:34;;;;;;;13.93;10.43;;;;;;;2.18;100.00;102566.97;5035366;28;20040;-64
2024/01/13 04:44:59;;;;;;;15.30;10.07;;;;;;;2.20;100.00;102565.13;5037547;28;20029;-64
2024/01/13 04:47:25;;;;;;;13.27;9.90;;;;;;;2.20;100.00;102562.50;5037925;28;20055;-64
2024/01/13 04:49:50;;;;;;;15.97;10.63;;;;;;;2.20;100.00;102562.50;5038469;28;20055;-64
2024/01/13 04:52:15;;;;;;;14.57;9.87;;;;;;;2.20;100.00;102574.75;5037437;28;20810;-64
2024/01/13 04:54:41;;;;;;;16.30;10.13;;;;;;;2.20;100.00;102559.03;5036449;28;20021;-64
2024/01/13 04:57:06;;;;;;;12.87;9.87;;;;;;;2.21;100.00;102558.97;5036396;28;20768;-64
2024/01/13 04:59:31;;;;;;;14.20;10.60;;;;;;;2.23;100.00;102564.13;5039060;28;20511;-64
2024/01/13 05:01:57;;;;;;;17.20;10.93;;;;;;;2.19;100.00;102547.72;5037751;28;20040;-64
2024/01/13 05:04:22;;;;;;;17.07;10.17;;;;;;;2.21;100.00;102551.09;5035307;28;20059;-65
2024/01/13 05:06:47;;;;;;;13.60;10.13;;;;;;;2.23;100.00;102558.88;5039004;28;20673;-64
2024/01/13 05:09:13;;;;;;;15.20;10.07;;;;;;;2.22;100.00;102552.78;5034764;28;20048;-64
2024/01/13 05:11:39;;;;;;;16.40;11.57;;;;;;;2.24;100.00;102553.56;5037913;28;20047;-64
2024/01/13 05:14:04;;;;;;;16.87;10.80;;;;;;;2.22;100.00;102552.78;5037867;28;20029;-64
2024/01/13 05:16:29;;;;;;;18.40;12.00;;;;;;;2.23;100.00;102561.50;5038959;28;20201;-64
2024/01/13 05:18:54;;;;;;;16.83;11.97;;;;;;;2.21;100.00;102556.34;5040327;28;20024;-64
2024/01/13 05:21:20;;;;;;;19.80;12.90;;;;;;;2.23;100.00;102561.50;5039936;28;20163;-64
2024/01/13 05:23:45;;;;;;;19.87;12.53;;;;;;;2.21;100.00;102565.97;5035959;28;20093;-64
2024/01/13 05:26:11;;;;;;;19.43;13.30;;;;;;;2.21;100.00;102560.72;5039769;28;20120;-64
2024/01/13 05:28:36;;;;;;;17.93;12.33;;;;;;;2.13;100.00;102542.75;5035688;28;20441;-64
2024/01/13 05:31:01;;;;;;;22.30;14.43;;;;;;;2.18;100.00;102554.72;5036152;28;20560;-64
2024/01/13 05:33:27;;;;;;;19.70;13.43;;;;;;;2.19;100.00;102555.56;5036028;28;20032;-64
2024/01/13 05:35:53;;;;;;;21.50;14.00;;;;;;;2.17;100.00;102555.66;5036487;28;20060;-64
2024/01/13 05:38:19;;;;;;;23.43;15.17;;;;;;;2.10;100.00;102537.69;5036296;28;20096;-64
2024/01/13 05:40:45;;;;;;;24.17;15.33;;;;;;;2.15;100.00;102544.38;5036421;28;20127;-64
2024/01/13 05:43:11;;;;;;;22.87;14.93;;;;;;;2.15;100.00;102533.06;5035007;28;20422;-64
2024/01/13 05:45:37;;;;;;;25.77;15.87;;;;;;;2.15;100.00;102533.91;5035629;28;21650;-64
2024/01/13 05:48:02;;;;;;;25.57;15.10;;;;;;;2.14;100.00;102533.97;5036261;28;20514;-64
2024/01/13 05:50:28;;;;;;;28.00;17.40;;;;;;;2.15;100.00;102544.38;5029928;28;20082;-64
2024/01/13 05:52:53;;;;;;;27.43;17.17;;;;;;;2.14;100.00;102544.47;5035615;28;20090;-64
2024/01/13 05:55:18;;;;;;;29.27;18.47;;;;;;;2.14;100.00;102547.09;5037452;28;20033;-64
2024/01/13 05:57:44;;;;;;;29.70;18.77;;;;;;;2.14;100.00;102545.31;5039128;28;20404;-64
2024/01/13 06:00:09;;;;;;;31.60;18.90;;;;;;;2.12;100.00;102551.56;5033728;28;20091;-64
2024/01/13 06:02:35;;;;;;;31.43;19.97;;;;;;;2.11;100.00;102548.09;5038797;28;20033;-64
2024/01/13 06:05:00;;;;;;;35.20;20.30;;;;;;;2.11;100.00;102548.09;5038203;28;20059;-64
2024/01/13 06:07:26;;;;;;;35.87;21.97;;;;;;;2.11;100.00;102536.75;5037074;28;20029;-64
2024/01/13 06:09:51;;;;;;;36.67;22.43;;;;;;;2.13;100.00;102525.28;5034340;28;20032;-64
2024/01/13 06:12:17;;;;;;;38.43;22.50;;;;;;;2.15;100.00;102520.81;5037604;28;20127;-64
2024/01/13 06:14:43;;;;;;;40.97;23.83;;;;;;;2.14;100.00;102518.25;5035063;28;20024;-65
2024/01/13 06:17:08;;;;;;;39.53;23.80;;;;;;;2.13;100.00;102512.16;5037053;28;20676;-64
2024/01/13 06:19:34;;;;;;;39.63;24.20;;;;;;;2.12;100.00;102499.16;5036168;28;20066;-64
2024/01/13 06:21:59;;;;;;;43.97;25.17;;;;;;;2.10;100.00;102490.50;5033488;28;20379;-64
2024/01/13 06:24:24;;;;;;;43.30;25.90;;;;;;;2.11;100.00;102490.44;5035651;28;20024;-64
2024/01/13 06:26:50;;;;;;;43.47;26.10;;;;;;;2.11;100.00;102484.34;5036349;28;20557;-64
2024/01/13 06:29:15;;;;;;;49.43;27.40;;;;;;;2.10;100.00;102473.00;5038711;28;20305;-64
2024/01/13 06:31:40;;;;;;;46.80;27.93;;;;;;;2.13;100.00;102496.44;5033557;28;21106;-64
2024/01/13 06:34:06;;;;;;;51.43;29.37;;;;;;;2.13;100.00;102503.47;5032154;28;20037;-64
2024/01/13 06:36:31;;;;;;;55.13;30.37;;;;;;;2.14;100.00;102506.00;5036296;28;20044;-64
2024/01/13 06:38:56;;;;;;;52.63;30.73;;;;;;;2.13;100.00;102496.44;5037275;28;20090;-64
2024/01/13 06:41:22;;;;;;;53.77;31.10;;;;;;;2.14;100.00;102487.66;5036023;28;20036;-64
2024/01/13 06:43:47;;;;;;;53.63;31.37;;;;;;;2.12;100.00;102494.75;5037156;28;20078;-64
2024/01/13 06:46:12;;;;;;;52.40;31.27;;;;;;;2.11;100.00;102479.94;5034586;28;20068;-64
2024/01/13 06:48:38;;;;;;;53.43;32.40;;;;;;;2.11;100.00;102468.63;5033909;28;20037;-64
2024/01/13 06:51:03;;;;;;;61.13;33.50;;;;;;;2.09;100.00;102455.59;5036138;28;20037;-64
2024/01/13 06:53:29;;;;;;;62.33;33.93;;;;;;;2.12;100.00;102449.34;5034541;28;20036;-64
2024/01/13 06:55:54;;;;;;;59.30;34.20;;;;;;;2.13;100.00;102457.13;5037027;28;20065;-64
2024/01/13 06:58:20;;;;;;;65.57;34.17;;;;;;;2.14;100.00;102456.22;5034595;28;20491;-64
2024/01/13 07:00:45;;;;;;;63.73;33.33;;;;;;;2.15;100.00;102454.44;5032309;28;20033;-64
2024/01/13 07:03:11;;;;;;;59.90;34.83;;;;;;;2.13;100.00;102441.41;5032810;28;21400;-64
2024/01/13 07:05:36;;;;;;;61.23;34.87;;;;;;;2.14;100.00;102422.16;5031519;28;20054;-64
2024/01/13 07:08:03;;;;;;;58.97;34.40;;;;;;;2.14;100.00;102424.75;5037978;28;20029;-64
2024/01/13 07:10:29;;;;;;;64.80;35.50;;;;;;;2.14;100.00;102423.91;5040043;28;20037;-64
2024/01/13 07:12:55;;;;;;;55.17;31.77;;;;;;;2.15;100.00;102415.97;5039550;28;20074;-64
2024/01/13 07:15:20;;;;;;;63.40;35.40;;;;;;;2.15;100.00;102418.59;5040824;28;20037;-64
2024/01/13 07:17:45;;;;;;;62.57;36.83;;;;;;;2.15;100.00;102429.06;5041815;28;20025;-64
2024/01/13 07:20:11;;;;;;;64.47;36.87;;;;;;;2.15;100.00;102426.47;5042195;28;20037;-64
2024/01/13 07:22:36;;;;;;;63.73;36.97;;;;;;;2.14;100.00;102411.66;5040038;28;20518;-64
2024/01/13 07:25:03;;;;;;;62.07;36.40;;;;;;;2.16;100.00;102419.44;5038131;28;20056;-64
2024/01/13 07:27:28;;;;;;;63.70;37.03;;;;;;;2.16;100.00;102420.28;5037381;28;20060;-64
2024/01/13 07:29:54;;;;;;;66.93;37.77;;;;;;;2.16;100.00;102406.34;5043408;28;20124;-64
2024/01/13 07:32:20;;;;;;;62.90;37.27;;;;;;;2.14;100.00;102414.28;5041474;28;20485;-64
2024/01/13 07:34:45;;;;;;;63.37;35.87;;;;;;;2.13;100.00;102412.59;5041473;28;20105;-64
2024/01/13 07:37:10;;;;;;;68.00;37.57;;;;;;;2.14;100.00;102406.41;5039423;28;21300;-64
2024/01/13 07:39:36;;;;;;;61.00;35.47;;;;;;;2.14;100.00;102390.69;5041559;28;20095;-64
2024/01/13 07:42:01;;;;;;;61.10;35.97;;;;;;;2.14;100.00;102393.31;5040072;28;20063;-64
2024/01/13 07:44:27;;;;;;;63.93;36.47;;;;;;;2.13;100.00;102396.88;5042284;28;20037;-64
2024/01/13 07:46:53;;;;;;;67.13;38.07;;;;;;;2.13;100.00;102399.47;5038370;28;20721;-66
2024/01/13 07:49:18;;;;;;;65.37;39.57;;;;;;;2.13;100.00;102390.78;5038380;28;20061;-66
2024/01/13 07:51:49;;;;;;;63.67;38.57;;;;;;;2.14;100.00;102393.31;5040822;28;20604;-65
2024/01/13 07:54:14;;;;;;;68.77;40.80;;;;;;;2.13;100.00;102404.72;5040205;28;20033;-66
2024/01/13 07:56:41;;;;;;;69.30;40.33;;;;;;;2.12;100.00;102403.03;5039201;28;20037;-66
2024/01/13 07:59:07;;;;;;;70.80;40.57;;;;;;;2.12;100.00;102389.94;5040902;28;20075;-66
2024/01/13 08:01:32;;;;;;;69.03;39.90;;;;;;;2.10;100.00;102370.81;5041920;28;20100;-66
2024/01/13 08:03:58;;;;;;;70.63;41.30;;;;;;;2.10;100.00;102356.88;5036637;28;20025;-66
2024/01/13 08:06:23;;;;;;;71.07;41.33;;;;;;;2.08;100.00;102358.72;5037585;28;20064;-66
2024/01/13 08:08:48;;;;;;;72.97;42.13;;;;;;;2.11;100.00;102361.19;5042380;28;20436;-66
2024/01/13 08:11:14;;;;;;;73.83;41.93;;;;;;;2.10;100.00;102362.97;5040669;28;20025;-66
2024/01/13 08:13:39;;;;;;;69.67;40.90;;;;;;;2.09;100.00;102355.19;5043015;28;20502;-66
2024/01/13 08:16:04;;;;;;;68.53;41.27;;;;;;;2.07;100.00;102347.41;5040681;28;20386;-66
2024/01/13 08:18:30;;;;;;;71.57;41.30;;;;;;;2.09;100.00;102347.31;5042231;28;20021;-66
2024/01/13 08:20:55;;;;;;;75.60;42.93;;;;;;;2.11;100.00;102358.56;5040302;28;20032;-65
2024/01/13 08:23:20;;;;;;;76.33;42.07;;;;;;;2.11;100.00;102355.94;5041634;28;20033;-66
2024/01/13 08:25:46;;;;;;;73.33;42.50;;;;;;;2.13;100.00;102364.56;5040519;28;20503;-65
2024/01/13 08:28:11;;;;;;;81.47;43.57;;;;;;;2.12;100.00;102355.00;5042476;28;20025;-66
2024/01/13 08:30:37;;;;;;;75.03;41.70;;;;;;;2.11;100.00;102354.16;5040630;28;20037;-66
2024/01/13 08:33:04;;;;;;;76.77;42.17;;;;;;;2.12;100.00;102347.16;5034595;28;20029;-66
2024/01/13 08:35:30;;;;;;;82.50;42.20;;;;;;;2.10;100.00;102356.88;5038816;28;20058;-65
2024/01/13 08:37:56;;;;;;;76.93;43.00;;;;;;;2.14;100.00;102369.72;5036345;28;20456;-66
2024/01/13 08:40:22;;;;;;;75.73;41.27;;;;;;;2.13;100.00;102365.41;5038421;28;20025;-65
2024/01/13 08:42:49;;;;;;;76.90;42.07;;;;;;;2.14;100.00;102367.13;5042139;28;20035;-65
2024/01/13 08:45:14;;;;;;;73.30;40.20;;;;;;;2.16;100.00;102364.41;5038731;28;20025;-66
2024/01/13 08:47:40;;;;;;;75.20;42.03;;;;;;;2.18;100.00;102346.84;5037461;28;20054;-66
2024/01/13 08:50:06;;;;;;;79.27;40.63;;;;;;;2.18;100.00;102368.66;5039101;28;20794;-66
2024/01/13 08:52:31;;;;;;;79.60;40.70;;;;;;;2.20;100.00;102370.34;5039472;28;20029;-65
2024/01/13 08:54:57;;;;;;;73.13;40.33;;;;;;;2.21;100.00;102364.16;5037087;28;20078;-65
2024/01/13 08:57:22;;;;;;;76.47;40.10;;;;;;;2.23;100.00;102373.66;5041489;28;20032;-66
2024/01/13 08:59:47;;;;;;;73.80;39.97;;;;;;;2.24;100.00;102370.09;5042185;28;20696;-66
2024/01/13 09:02:13;;;;;;;71.40;39.07;;;;;;;2.24;100.00;102356.16;5041221;28;20143;-66
2024/01/13 09:04:38;;;;;;;72.23;38.90;;;;;;;2.26;100.00;102356.91;5038082;28;20027;-66
2024/01/13 09:07:03;;;;;;;70.70;39.63;;;;;;;2.26;100.00;102355.13;5036816;28;20068;-66
2024/01/13 09:09:29;;;;;;;71.03;39.50;;;;;;;2.27;100.00;102362.06;5039946;28;20063;-65
2024/01/13 09:11:55;;;;;;;71.13;38.37;;;;;;;2.27;100.00;102358.59;5040335;28;20086;-66
2024/01/13 09:14:20;;;;;;;70.13;38.73;;;;;;;2.29;100.00;102349.72;5040052;28;20437;-66
2024/01/13 09:16:46;;;;;;;74.53;38.80;;;;;;;2.29;100.00;102343.63;5037832;28;20595;-66
2024/01/13 09:19:11;;;;;;;69.40;38.20;;;;;;;2.29;100.00;102336.63;5039786;28;20029;-65
2024/01/13 09:21:37;;;;;;;69.90;36.70;;;;;;;2.30;100.00;102346.19;5037663;28;20148;-65
2024/01/13 09:24:03;;;;;;;65.30;36.13;;;;;;;2.31;100.00;102337.38;5039944;28;20459;-66
2024/01/13 09:26:29;;;;;;;67.77;37.73;;;;;;;2.32;100.00;102343.50;5035528;28;20033;-66
2024/01/13 09:28:54;;;;;;;66.77;36.37;;;;;;;2.31;100.00;102353.13;5038085;28;20032;-66
2024/01/13 09:31:20;;;;;;;66.80;36.63;;;;;;;2.33;100.00;102345.19;5036686;28;20131;-66
2024/01/13 09:33:45;;;;;;;68.47;36.20;;;;;;;2.34;100.00;102349.53;5036138;28;20032;-66
2024/01/13 09:36:10;;;;;;;67.47;36.60;;;;;;;2.36;100.00;102350.28;5035274;28;20086;-66
2024/01/13 09:38:36;;;;;;;66.37;35.10;;;;;;;2.37;100.00;102350.19;5034350;28;20695;-65
2024/01/13 09:41:01;;;;;;;63.93;34.33;;;;;;;2.38;100.00;102354.50;5038276;28;20588;-66
2024/01/13 09:43:56;;;;;;;59.57;32.80;;;;;;;2.44;100.00;102348.94;5035328;28;20039;-66
2024/01/13 09:46:22;;;;;;;58.70;32.43;;;;;;;2.43;100.00;102343.78;5037877;28;20028;-66
2024/01/13 09:48:48;;;;;;;58.40;33.97;;;;;;;2.44;100.00;102333.22;5033923;28;20029;-66
2024/01/13 09:51:15;;;;;;;63.73;33.80;;;;;;;2.44;100.00;102329.75;5037221;28;20459;-65
2024/01/13 09:53:47;;;;;;;55.93;31.37;;;;;;;2.44;100.00;102333.22;5032505;28;20123;-66
2024/01/13 09:56:22;;;;;;;59.03;32.80;;;;;;;2.45;100.00;102320.94;5041122;28;20036;-65
2024/01/13 09:58:48;;;;;;;59.87;33.27;;;;;;;2.44;100.00;102319.25;5039375;28;20033;-65
2024/01/13 10:01:13;;;;;;;57.43;32.97;;;;;;;2.45;100.00;102323.56;5039343;28;20033;-66
2024/01/13 10:03:38;;;;;;;58.07;31.67;;;;;;;2.47;100.00;102326.94;5037453;28;20036;-66
2024/01/13 10:06:04;;;;;;;53.17;31.50;;;;;;;2.45;100.00;102329.66;5038414;28;20036;-65
2024/01/13 10:08:31;;;;;;;53.57;31.57;;;;;;;2.45;100.00;102328.81;5036917;28;20028;-66
2024/01/13 10:10:58;;;;;;;52.17;30.27;;;;;;;2.46;100.00;102325.25;5039520;28;20417;-66
2024/01/13 10:13:25;;;;;;;49.70;30.50;;;;;;;2.47;100.00;102317.31;5035666;28;20040;-66
2024/01/13 10:15:54;;;;;;;51.77;30.20;;;;;;;2.49;100.00;102318.06;5037684;28;20107;-65
2024/01/13 10:18:22;;;;;;;51.00;29.83;;;;;;;2.48;100.00;102315.53;5035425;28;20029;-66
2024/01/13 10:20:48;;;;;;;51.73;31.40;;;;;;;2.48;100.00;102319.00;5037547;28;20058;-66
2024/01/13 10:23:13;;;;;;;52.03;30.07;;;;;;;2.49;100.00;102309.38;5036097;28;20278;-66
2024/01/13 10:25:38;;;;;;;49.80;30.67;;;;;;;2.48;100.00;102299.81;5034930;28;20040;-66
2024/01/13 10:28:04;;;;;;;50.97;30.73;;;;;;;2.51;100.00;102299.63;5037379;28;20095;-66
2024/01/13 10:30:29;;;;;;;50.10;28.90;;;;;;;2.52;100.00;102297.84;5035880;28;20049;-66
2024/01/13 10:32:58;;;;;;;46.73;28.80;;;;;;;2.52;100.00;102298.72;5037281;28;20044;-66
2024/01/13 10:35:25;;;;;;;46.63;28.52;;;;;;;2.54;100.00;102293.38;5036822;28;20411;-65
2024/01/13 10:37:50;;;;;;;50.40;30.03;;;;;;;2.55;100.00;102305.56;5035222;28;20609;-66
2024/01/13 10:40:16;;;;;;;47.43;28.03;;;;;;;2.58;100.00;102306.25;5038682;28;20026;-66
2024/01/13 10:42:46;;;;;;;42.70;27.60;;;;;;;2.59;100.00;102304.47;5045369;28;20490;-66
2024/01/13 10:45:14;;;;;;;40.13;24.73;;;;;;;2.61;100.00;102300.00;5044875;28;20033;-66
2024/01/13 10:47:49;;;;;;;38.57;25.27;;;;;;;2.61;100.00;102300.84;5044393;28;20068;-66
2024/01/13 10:50:15;;;;;;;38.63;24.53;;;;;;;2.60;100.00;102291.28;5043642;28;20058;-66
2024/01/13 10:53:03;;;;;;;37.10;24.00;;;;;;;2.61;100.00;102290.38;5047079;28;20576;-65
2024/01/13 10:55:30;;;;;;;35.60;23.60;;;;;;;2.66;100.00;102275.22;5041130;28;20049;-66
2024/01/13 10:57:58;;;;;;;35.83;23.47;;;;;;;2.66;100.00;102269.13;5041412;28;20037;-65
2024/01/13 11:00:24;;;;;;;38.10;23.80;;;;;;;2.70;100.00;102270.66;5044229;28;20050;-66
2024/01/13 11:02:51;;;;;;;33.83;23.30;;;;;;;2.68;100.00;102270.72;5046007;28;20488;-66